createdAt,value
2024-04-21T00:00:55.215Z,1.20
2024-04-21T00:02:57.049Z,1.33
2024-04-21T00:04:58.995Z,1.13
2024-04-21T00:07:03.802Z,1.63
2024-04-21T00:09:05.556Z,1.55
2024-04-21T00:11:07.429Z,1.30
2024-04-21T00:13:09.412Z,1.50
2024-04-21T00:15:11.334Z,1.83
2024-04-21T00:17:14.130Z,1.30
2024-04-21T00:19:17.308Z,1.17
2024-04-21T00:21:19.242Z,1.20
2024-04-21T00:23:23.703Z,1.17
2024-04-21T00:25:25.678Z,1.50
2024-04-21T00:27:27.471Z,1.17
2024-04-21T00:29:29.311Z,0.85
2024-04-21T00:31:31.336Z,1.40
2024-04-21T00:33:33.131Z,1.00
2024-04-21T00:35:35.073Z,1.35
2024-04-21T00:37:36.971Z,1.15
2024-04-21T00:39:42.196Z,1.20
2024-04-21T00:41:44.122Z,1.00
2024-04-21T00:43:45.947Z,1.10
2024-04-21T00:45:48.373Z,1.00
2024-04-21T00:47:50.355Z,1.00
2024-04-21T00:49:52.542Z,0.90
2024-04-21T00:51:54.736Z,1.27
2024-04-21T00:53:57.140Z,1.08
2024-04-21T00:56:02.530Z,1.00
2024-04-21T00:58:05.094Z,1.08
2024-04-21T01:00:11.467Z,0.90
2024-04-21T01:02:13.333Z,1.08
2024-04-21T01:04:15.447Z,0.80
2024-04-21T01:06:17.414Z,0.80
2024-04-21T01:08:19.322Z,1.00
2024-04-21T01:10:21.150Z,1.00
2024-04-21T01:12:25.659Z,1.00
2024-04-21T01:14:27.645Z,0.95
2024-04-21T01:16:29.626Z,0.90
2024-04-21T01:18:31.423Z,1.00
2024-04-21T01:20:35.492Z,0.80
2024-04-21T01:22:42.910Z,0.98
2024-04-21T01:24:44.716Z,1.10
2024-04-21T01:26:46.569Z,0.50
2024-04-21T01:28:48.452Z,0.85
2024-04-21T01:30:50.418Z,0.82
2024-04-21T01:32:52.496Z,0.82
2024-04-21T01:34:54.507Z,0.80
2024-04-21T01:36:56.268Z,0.95
2024-04-21T01:39:01.228Z,0.93
2024-04-21T01:41:03.268Z,0.75
2024-04-21T01:43:05.277Z,0.60
2024-04-21T01:45:07.976Z,0.68
2024-04-21T01:47:09.909Z,0.85
2024-04-21T01:49:11.783Z,0.60
2024-04-21T01:51:13.648Z,0.80
2024-04-21T01:53:16.075Z,0.68
2024-04-21T01:55:20.728Z,0.73
2024-04-21T01:57:25.002Z,0.85
2024-04-21T01:59:26.930Z,0.65
2024-04-21T02:01:28.791Z,0.45
2024-04-21T02:03:30.888Z,0.52
2024-04-21T02:05:32.906Z,0.57
2024-04-21T02:07:34.829Z,0.60
2024-04-21T02:09:36.759Z,0.82
2024-04-21T02:11:41.364Z,0.65
2024-04-21T02:13:43.264Z,0.60
2024-04-21T02:15:50.099Z,0.75
2024-04-21T02:17:52.000Z,1.10
2024-04-21T02:19:53.787Z,0.80
2024-04-21T02:21:55.801Z,0.98
2024-04-21T02:23:57.647Z,0.77
2024-04-21T02:25:59.852Z,1.30
2024-04-21T02:28:04.909Z,0.88
2024-04-21T02:30:08.301Z,0.85
2024-04-21T02:32:10.167Z,0.90
2024-04-21T02:34:12.036Z,0.82
2024-04-21T02:36:13.937Z,0.95
2024-04-21T02:38:15.694Z,1.20
2024-04-21T02:40:17.752Z,0.90
2024-04-21T02:42:19.576Z,0.90
2024-04-21T02:44:24.100Z,1.00
2024-04-21T02:46:26.043Z,1.65
2024-04-21T02:48:28.052Z,1.27
2024-04-21T02:50:29.916Z,1.40
2024-04-21T02:52:31.735Z,1.42
2024-04-21T02:54:33.691Z,1.50
2024-04-21T02:56:35.511Z,1.15
2024-04-21T02:58:37.476Z,1.10
2024-04-21T03:00:41.904Z,1.70
2024-04-21T03:02:43.875Z,1.50
2024-04-21T03:04:45.978Z,1.65
2024-04-21T03:06:47.949Z,1.70
2024-04-21T03:08:49.906Z,1.60
2024-04-21T03:10:51.683Z,1.58
2024-04-21T03:12:53.605Z,2.33
2024-04-21T03:14:55.419Z,2.10
2024-04-21T03:16:59.824Z,2.03
2024-04-21T03:19:02.507Z,2.10
2024-04-21T03:21:04.556Z,1.98
2024-04-21T03:23:06.410Z,2.70
2024-04-21T03:25:08.423Z,2.83
2024-04-21T03:27:10.377Z,2.50
2024-04-21T03:29:12.129Z,2.80
2024-04-21T03:31:13.973Z,3.38
2024-04-21T03:33:18.554Z,2.72
2024-04-21T03:35:20.561Z,2.72
2024-04-21T03:37:22.553Z,2.45
2024-04-21T03:39:24.414Z,2.55
2024-04-21T03:41:26.362Z,2.88
2024-04-21T03:43:28.226Z,2.58
2024-04-21T03:45:29.974Z,2.40
2024-04-21T03:47:32.024Z,2.22
2024-04-21T03:49:36.688Z,2.50
2024-04-21T03:51:38.534Z,2.40
2024-04-21T03:53:40.382Z,2.33
2024-04-21T03:55:42.129Z,2.65
2024-04-21T03:57:44.000Z,2.08
2024-04-21T03:59:45.831Z,1.83
2024-04-21T04:01:47.639Z,2.00
2024-04-21T04:03:49.740Z,2.38
2024-04-21T04:05:54.378Z,2.05
2024-04-21T04:07:56.281Z,2.42
2024-04-21T04:09:58.185Z,2.35
2024-04-21T04:12:00.069Z,2.00
2024-04-21T04:14:01.836Z,2.50
2024-04-21T04:16:04.008Z,2.92
2024-04-21T04:18:05.872Z,3.30
2024-04-21T04:20:08.570Z,2.65
2024-04-21T04:22:13.001Z,3.60
2024-04-21T04:24:14.913Z,2.80
2024-04-21T04:26:16.675Z,2.97
2024-04-21T04:28:19.571Z,3.00
2024-04-21T04:30:21.390Z,2.95
2024-04-21T04:32:23.225Z,2.70
2024-04-21T04:34:25.056Z,2.92
2024-04-21T04:36:26.979Z,2.55
2024-04-21T04:38:31.366Z,3.15
2024-04-21T04:40:33.210Z,3.40
2024-04-21T04:42:35.095Z,2.63
2024-04-21T04:44:36.827Z,3.08
2024-04-21T04:46:38.717Z,2.97
2024-04-21T04:48:40.513Z,3.42
2024-04-21T04:50:42.254Z,2.58
2024-04-21T04:52:44.112Z,2.45
2024-04-21T04:54:48.645Z,2.33
2024-04-21T04:56:53.504Z,1.80
2024-04-21T04:58:55.328Z,2.20
2024-04-21T05:00:57.231Z,2.00
2024-04-21T05:02:59.129Z,2.30
2024-04-21T05:05:01.068Z,2.40
2024-04-21T05:07:03.120Z,2.13
2024-04-21T05:09:05.040Z,1.80
2024-04-21T05:11:09.496Z,2.08
2024-04-21T05:13:11.644Z,2.58
2024-04-21T05:15:13.462Z,1.88
2024-04-21T05:17:15.359Z,1.42
2024-04-21T05:19:17.446Z,1.90
2024-04-21T05:21:19.255Z,1.80
2024-04-21T05:23:20.973Z,1.88
2024-04-21T05:25:22.850Z,2.13
2024-04-21T05:27:27.233Z,2.05
2024-04-21T05:29:29.227Z,1.70
2024-04-21T05:31:31.064Z,1.95
2024-04-21T05:33:32.863Z,1.80
2024-04-21T05:35:34.702Z,1.55
2024-04-21T05:37:36.566Z,1.63
2024-04-21T05:39:38.410Z,2.38
2024-04-21T05:41:40.416Z,2.42
2024-04-21T05:43:46.994Z,1.92
2024-04-21T05:45:48.934Z,1.92
2024-04-21T05:47:50.876Z,1.80
2024-04-21T05:49:52.845Z,1.70
2024-04-21T05:51:54.679Z,1.45
2024-04-21T05:53:58.322Z,1.40
2024-04-21T05:56:00.385Z,1.58
2024-04-21T05:58:02.388Z,1.70
2024-04-21T06:00:07.956Z,1.23
2024-04-21T06:02:09.840Z,2.13
2024-04-21T06:04:11.868Z,1.45
2024-04-21T06:06:13.639Z,1.55
2024-04-21T06:08:15.509Z,1.38
2024-04-21T06:10:17.381Z,1.90
2024-04-21T06:12:19.266Z,1.73
2024-04-21T06:14:21.319Z,1.45
2024-04-21T06:16:25.861Z,1.55
2024-04-21T06:18:27.853Z,1.65
2024-04-21T06:20:29.826Z,1.85
2024-04-21T06:22:31.577Z,1.90
2024-04-21T06:24:33.448Z,1.60
2024-04-21T06:26:35.342Z,1.70
2024-04-21T06:28:37.122Z,1.80
2024-04-21T06:30:38.956Z,1.73
2024-04-21T06:32:43.454Z,1.50
2024-04-21T06:34:45.350Z,1.20
2024-04-21T06:36:47.164Z,1.42
2024-04-21T06:38:49.088Z,1.65
2024-04-21T06:40:50.929Z,1.60
2024-04-21T06:42:52.750Z,1.33
2024-04-21T06:44:54.535Z,2.08
2024-04-21T06:46:56.440Z,1.80
2024-04-21T06:49:00.870Z,1.83
2024-04-21T06:51:02.966Z,1.90
2024-04-21T06:53:04.910Z,2.10
2024-04-21T06:55:07.440Z,1.77
2024-04-21T06:57:09.258Z,1.88
2024-04-21T06:59:11.047Z,3.03
2024-04-21T07:01:12.889Z,2.78
2024-04-21T07:03:14.861Z,1.95
2024-04-21T07:05:19.338Z,2.28
2024-04-21T07:07:21.267Z,2.15
2024-04-21T07:09:23.174Z,2.40
2024-04-21T07:11:25.433Z,2.25
2024-04-21T07:13:27.349Z,2.67
2024-04-21T07:15:29.267Z,1.98
2024-04-21T07:17:31.410Z,2.75
2024-04-21T07:19:33.523Z,1.73
2024-04-21T07:21:38.007Z,2.10
2024-04-21T07:23:39.768Z,1.80
2024-04-21T07:25:41.622Z,2.08
2024-04-21T07:27:43.415Z,2.10
2024-04-21T07:29:45.197Z,2.30
2024-04-21T07:31:47.098Z,2.03
2024-04-21T07:33:48.869Z,2.05
2024-04-21T07:35:50.855Z,2.28
2024-04-21T07:37:55.177Z,1.52
2024-04-21T07:39:57.285Z,2.08
2024-04-21T07:41:59.177Z,1.75
2024-04-21T07:44:01.090Z,2.00
2024-04-21T07:46:03.636Z,2.35
2024-04-21T07:48:06.448Z,1.88
2024-04-21T07:50:08.438Z,2.30
2024-04-21T07:52:10.274Z,2.00
2024-04-21T07:54:15.025Z,2.17
2024-04-21T07:56:16.924Z,1.95
2024-04-21T07:58:18.733Z,1.65
2024-04-21T08:00:20.568Z,1.98
2024-04-21T08:02:22.415Z,1.83
2024-04-21T08:04:24.404Z,1.40
2024-04-21T08:06:26.237Z,2.22
2024-04-21T08:08:28.068Z,1.65
2024-04-21T08:10:33.111Z,1.70
2024-04-21T08:12:36.571Z,1.70
2024-04-21T08:14:39.312Z,1.90
2024-04-21T08:16:41.259Z,2.00
2024-04-21T08:18:43.531Z,1.52
2024-04-21T08:20:47.429Z,1.42
2024-04-21T08:22:50.671Z,1.15
2024-04-21T08:24:52.533Z,1.38
2024-04-21T08:26:56.914Z,1.50
2024-04-21T08:28:58.672Z,1.85
2024-04-21T08:31:00.521Z,1.42
2024-04-21T08:33:02.563Z,1.80
2024-04-21T08:35:05.182Z,1.45
2024-04-21T08:37:07.008Z,1.70
2024-04-21T08:39:08.989Z,1.50
2024-04-21T08:41:14.574Z,1.70
2024-04-21T08:43:23.331Z,1.40
2024-04-21T08:45:28.112Z,1.23
2024-04-21T08:47:30.396Z,1.90
2024-04-21T08:49:32.420Z,1.63
2024-04-21T08:51:35.883Z,1.35
2024-04-21T08:53:38.080Z,1.25
2024-04-21T08:55:41.508Z,1.58
2024-04-21T08:57:43.605Z,1.50
2024-04-21T08:59:49.527Z,1.30
2024-04-21T09:01:52.264Z,1.75
2024-04-21T09:03:54.570Z,1.23
2024-04-21T09:06:00.349Z,1.65
2024-04-21T09:08:02.658Z,1.13
2024-04-21T09:10:05.124Z,1.25
2024-04-21T09:12:07.933Z,1.20
2024-04-21T09:14:12.205Z,1.63
2024-04-21T09:16:16.814Z,1.00
2024-04-21T09:18:18.714Z,0.98
2024-04-21T09:20:20.712Z,0.90
2024-04-21T09:22:22.807Z,1.08
2024-04-21T09:24:24.714Z,0.90
2024-04-21T09:26:26.504Z,1.13
2024-04-21T09:28:28.325Z,1.00
2024-04-21T09:30:30.186Z,0.75
2024-04-21T09:32:34.762Z,0.88
2024-04-21T09:34:37.288Z,1.13
2024-04-21T09:36:39.802Z,1.42
2024-04-21T09:38:42.630Z,1.00
2024-04-21T09:40:45.158Z,1.15
2024-04-21T09:42:49.919Z,1.20
2024-04-21T09:44:54.354Z,1.10
2024-04-21T09:46:58.107Z,1.33
2024-04-21T09:49:04.371Z,1.95
2024-04-21T09:51:06.856Z,1.27
2024-04-21T09:53:09.330Z,1.10
2024-04-21T09:55:11.281Z,1.48
2024-04-21T09:57:17.770Z,1.38
2024-04-21T09:59:23.196Z,1.40
2024-04-21T10:01:31.502Z,1.42
2024-04-21T10:03:38.512Z,1.35
2024-04-21T10:05:43.415Z,1.15
2024-04-21T10:07:46.681Z,1.17
2024-04-21T10:09:51.467Z,1.15
2024-04-21T10:11:53.714Z,1.45
2024-04-21T10:13:56.129Z,1.40
2024-04-21T10:15:58.014Z,1.17
2024-04-21T10:18:01.522Z,1.42
2024-04-21T10:20:04.611Z,0.98
2024-04-21T10:22:09.738Z,0.90
2024-04-21T10:24:13.342Z,0.90
2024-04-21T10:26:17.522Z,1.05
2024-04-21T10:28:26.987Z,1.00
2024-04-21T10:30:30.319Z,0.90
2024-04-21T10:32:32.120Z,0.90
2024-04-21T10:34:34.070Z,0.90
2024-04-21T10:36:44.048Z,0.85
2024-04-21T10:38:52.554Z,1.10
2024-04-21T10:40:57.274Z,0.95
2024-04-21T10:42:59.124Z,1.08
2024-04-21T10:45:01.244Z,1.08
2024-04-21T10:47:03.031Z,0.90
2024-04-21T10:49:05.659Z,1.10
2024-04-21T10:51:07.520Z,1.08
2024-04-21T10:53:09.485Z,1.08
2024-04-21T10:55:13.867Z,0.90
2024-04-21T10:57:16.137Z,1.30
2024-04-21T10:59:18.211Z,0.75
2024-04-21T11:01:20.038Z,1.20
2024-04-21T11:03:21.862Z,1.00
2024-04-21T11:05:27.580Z,1.10
2024-04-21T11:07:29.525Z,1.00
2024-04-21T11:09:31.501Z,0.85
2024-04-21T11:11:36.014Z,0.90
2024-04-21T11:13:37.818Z,0.93
2024-04-21T11:15:42.862Z,0.95
2024-04-21T11:17:44.818Z,1.27
2024-04-21T11:19:46.807Z,1.20
2024-04-21T11:21:48.992Z,1.00
2024-04-21T11:23:50.879Z,0.90
2024-04-21T11:25:54.780Z,1.23
2024-04-21T11:28:00.675Z,0.82
2024-04-21T11:30:03.394Z,0.90
2024-04-21T11:32:06.008Z,0.98
2024-04-21T11:34:07.776Z,0.90
2024-04-21T11:36:11.088Z,0.90
2024-04-21T11:38:13.093Z,0.90
2024-04-21T11:45:45.602Z,1.20
2024-04-21T11:47:47.445Z,1.35
2024-04-21T11:49:49.371Z,1.13
2024-04-21T11:51:51.215Z,1.30
2024-04-21T11:53:53.085Z,1.30
2024-04-21T11:55:54.914Z,1.00
2024-04-21T11:57:56.991Z,1.20
2024-04-21T12:00:00.227Z,0.90
2024-04-21T12:02:06.080Z,1.10
2024-04-21T12:04:08.013Z,1.40
2024-04-21T12:06:09.969Z,1.10
2024-04-21T12:08:12.394Z,1.00
2024-04-21T12:10:14.211Z,1.30
2024-04-21T12:12:16.363Z,1.15
2024-04-21T12:14:28.737Z,1.50
2024-04-21T12:16:30.905Z,1.13
2024-04-21T12:18:35.500Z,1.00
2024-04-21T12:20:37.758Z,1.60
2024-04-21T12:22:39.737Z,1.27
2024-04-21T12:24:43.704Z,1.27
2024-04-21T12:26:45.689Z,1.17
2024-04-21T12:28:47.600Z,1.23
2024-04-21T12:30:49.853Z,1.20
2024-04-21T12:32:52.259Z,1.20
2024-04-21T12:34:56.910Z,1.00
2024-04-21T12:36:58.830Z,1.27
2024-04-21T12:39:00.636Z,1.40
2024-04-21T12:41:02.454Z,1.00
2024-04-21T12:43:04.730Z,1.35
2024-04-21T12:45:08.759Z,0.90
2024-04-21T12:47:10.716Z,1.00
2024-04-21T12:49:12.652Z,1.15
2024-04-21T12:51:17.363Z,1.13
2024-04-21T12:53:19.455Z,1.38
2024-04-21T12:55:21.277Z,0.98
2024-04-21T12:57:23.167Z,0.95
2024-04-21T12:59:24.999Z,1.23
2024-04-21T13:01:27.002Z,1.20
2024-04-21T13:03:28.980Z,0.90
2024-04-21T13:05:30.859Z,1.23
2024-04-21T13:07:35.423Z,1.30
2024-04-21T13:09:37.196Z,1.08
2024-04-21T13:11:39.050Z,1.10
2024-04-21T13:13:40.910Z,1.02
2024-04-21T13:15:42.806Z,1.15
2024-04-21T13:17:46.388Z,1.40
2024-04-21T13:19:48.646Z,1.05
2024-04-21T13:21:50.899Z,0.98
2024-04-21T13:23:55.486Z,0.98
2024-04-21T13:25:57.330Z,1.10
2024-04-21T13:27:59.207Z,1.00
2024-04-21T13:30:01.004Z,1.33
2024-04-21T13:32:02.844Z,0.70
2024-04-21T13:34:04.717Z,1.58
2024-04-21T13:36:06.752Z,1.02
2024-04-21T13:38:08.602Z,1.30
2024-04-21T13:40:13.225Z,1.02
2024-04-21T13:42:15.070Z,1.17
2024-04-21T13:44:16.904Z,1.02
2024-04-21T13:46:18.765Z,1.20
2024-04-21T13:48:20.637Z,1.25
2024-04-21T13:50:22.514Z,0.90
2024-04-21T13:52:24.442Z,0.85
2024-04-21T13:54:26.267Z,1.00
2024-04-21T13:56:30.674Z,0.90
2024-04-21T13:58:32.602Z,1.00
2024-04-21T14:00:34.561Z,1.10
2024-04-21T14:02:36.358Z,1.00
2024-04-21T14:04:38.222Z,1.10
2024-04-21T14:06:40.070Z,0.65
2024-04-21T14:08:41.943Z,0.88
2024-04-21T14:10:44.091Z,0.80
2024-04-21T14:12:48.612Z,0.75
2024-04-21T14:14:50.430Z,1.63
2024-04-21T14:16:52.320Z,1.00
2024-04-21T14:18:56.268Z,0.90
2024-04-21T14:20:59.683Z,1.20
2024-04-21T14:23:01.669Z,1.00
2024-04-21T14:25:03.609Z,1.00
2024-04-21T14:27:05.458Z,0.90
2024-04-21T14:29:09.877Z,0.90
2024-04-21T14:31:11.803Z,1.10
2024-04-21T14:33:13.708Z,1.10
2024-04-21T14:35:15.762Z,1.17
2024-04-21T14:37:17.752Z,1.00
2024-04-21T14:39:19.514Z,1.10
2024-04-21T14:41:21.361Z,1.42
2024-04-21T14:43:23.224Z,0.75
2024-04-21T14:45:27.598Z,1.02
2024-04-21T14:47:29.519Z,1.10
2024-04-21T14:49:31.884Z,0.93
2024-04-21T14:51:33.669Z,0.85
2024-04-21T14:53:35.487Z,0.98
2024-04-21T14:55:41.550Z,1.15
2024-04-21T14:57:46.829Z,0.98
2024-04-21T14:59:49.793Z,1.05
2024-04-21T15:01:57.245Z,0.80
2024-04-21T15:03:59.164Z,1.33
2024-04-21T15:06:00.999Z,0.90
2024-04-21T15:08:02.794Z,0.77
2024-04-21T15:10:05.176Z,0.80
2024-04-21T15:12:07.400Z,0.80
2024-04-21T15:14:09.222Z,0.98
2024-04-21T15:16:11.062Z,0.82
2024-04-21T15:18:15.551Z,1.00
2024-04-21T15:20:17.364Z,0.90
2024-04-21T15:22:19.146Z,0.95
2024-04-21T15:24:21.050Z,1.02
2024-04-21T15:26:23.008Z,1.20
2024-04-21T15:28:24.949Z,0.88
2024-04-21T15:30:26.748Z,0.95
2024-04-21T15:32:28.614Z,0.73
2024-04-21T15:34:33.304Z,0.93
2024-04-21T15:36:35.083Z,0.82
2024-04-21T15:38:36.940Z,0.93
2024-04-21T15:40:38.896Z,0.90
2024-04-21T15:42:41.041Z,0.77
2024-04-21T15:44:42.822Z,0.90
2024-04-21T15:46:44.710Z,0.90
2024-04-21T15:48:46.520Z,0.55
2024-04-21T15:50:50.946Z,0.90
2024-04-21T15:52:52.767Z,0.80
2024-04-21T15:54:54.707Z,0.80
2024-04-21T15:56:56.566Z,0.90
2024-04-21T15:58:58.409Z,0.90
2024-04-21T16:01:00.291Z,0.75
2024-04-21T16:03:02.145Z,0.70
2024-04-21T16:05:04.450Z,0.80
2024-04-21T16:07:09.020Z,0.93
2024-04-21T16:09:10.764Z,0.70
2024-04-21T16:11:12.654Z,0.85
2024-04-21T16:13:14.567Z,0.73
2024-04-21T16:15:16.554Z,0.55
2024-04-21T16:17:18.736Z,0.80
2024-04-21T16:19:20.557Z,0.90
2024-04-21T16:21:23.320Z,0.77
2024-04-21T16:23:27.966Z,0.75
2024-04-21T16:25:33.122Z,0.90
2024-04-21T16:27:35.114Z,0.70
2024-04-21T16:29:36.925Z,0.70
2024-04-21T16:31:38.789Z,0.93
2024-04-21T16:33:41.223Z,1.00
2024-04-21T16:35:43.548Z,1.00
2024-04-21T16:37:45.892Z,1.10
2024-04-21T16:39:51.050Z,1.10
2024-04-21T16:41:53.396Z,1.05
2024-04-21T16:43:55.681Z,1.02
2024-04-21T16:45:58.050Z,1.40
2024-04-21T16:48:06.219Z,1.20
2024-04-21T16:50:09.391Z,1.17
2024-04-21T16:52:12.144Z,1.15
2024-04-21T16:54:14.573Z,1.23
2024-04-21T16:56:23.898Z,1.25
2024-04-21T16:58:26.906Z,1.45
2024-04-21T17:00:30.492Z,1.20
2024-04-21T17:02:33.088Z,1.52
2024-04-21T17:04:37.156Z,1.40
2024-04-21T17:06:44.566Z,1.65
2024-04-21T17:08:47.431Z,1.40
2024-04-21T17:10:49.867Z,1.83
2024-04-21T17:12:54.487Z,1.77
2024-04-21T17:14:56.403Z,1.77
2024-04-21T17:16:58.279Z,1.73
2024-04-21T17:19:00.075Z,1.60
2024-04-21T17:21:02.064Z,1.92
2024-04-21T17:23:07.678Z,1.95
2024-04-21T17:25:10.836Z,1.67
2024-04-21T17:27:12.705Z,1.60
2024-04-21T17:29:17.129Z,1.45
2024-04-21T17:31:18.973Z,1.35
2024-04-21T17:33:20.965Z,1.75
2024-04-21T17:35:22.872Z,1.63
2024-04-21T17:37:24.638Z,1.70
2024-04-21T17:39:26.517Z,1.70
2024-04-21T17:41:28.333Z,1.40
2024-04-21T17:43:30.132Z,3.08
2024-04-21T17:45:34.563Z,1.88
2024-04-21T17:47:36.527Z,1.83
2024-04-21T17:49:38.579Z,2.00
2024-04-21T17:51:40.385Z,1.90
2024-04-21T17:53:42.216Z,1.75
2024-04-21T17:55:44.330Z,1.83
2024-04-21T17:57:47.721Z,1.90
2024-04-21T17:59:49.547Z,2.00
2024-04-21T18:01:54.093Z,1.63
2024-04-21T18:03:55.996Z,2.20
2024-04-21T18:05:57.820Z,2.22
2024-04-21T18:07:59.662Z,1.75
2024-04-21T18:10:03.898Z,1.98
2024-04-21T18:12:06.432Z,2.50
2024-04-21T18:14:08.233Z,2.05
2024-04-21T18:16:10.077Z,2.20
2024-04-21T18:18:14.703Z,2.28
2024-04-21T18:20:16.570Z,2.45
2024-04-21T18:22:18.468Z,2.45
2024-04-21T18:24:20.483Z,2.75
2024-04-21T18:26:22.236Z,2.40
2024-04-21T18:28:24.168Z,2.30
2024-04-21T18:30:26.270Z,2.63
2024-04-21T18:32:28.191Z,2.50
2024-04-21T18:34:32.852Z,2.20
2024-04-21T18:36:34.713Z,2.53
2024-04-21T18:38:36.483Z,2.17
2024-04-21T18:40:40.647Z,2.03
2024-04-21T18:42:42.504Z,2.35
2024-04-21T18:44:44.506Z,2.63
2024-04-21T18:46:46.372Z,2.10
2024-04-21T18:48:48.254Z,2.33
2024-04-21T18:50:52.658Z,2.25
2024-04-21T18:52:54.404Z,2.53
2024-04-21T18:54:56.157Z,2.55
2024-04-21T18:56:57.941Z,2.95
2024-04-21T18:58:59.719Z,2.40
2024-04-21T19:01:04.764Z,2.83
2024-04-21T19:03:06.788Z,2.70
2024-04-21T19:05:08.698Z,2.78
2024-04-21T19:07:13.122Z,2.58
2024-04-21T19:09:15.508Z,2.35
2024-04-21T19:11:17.942Z,2.20
2024-04-21T19:13:20.315Z,2.30
2024-04-21T19:15:22.633Z,2.92
2024-04-21T19:17:25.060Z,2.92
2024-04-21T19:19:27.495Z,2.40
2024-04-21T19:21:29.867Z,2.78
2024-04-21T19:23:35.330Z,2.60
2024-04-21T19:25:37.354Z,2.60
2024-04-21T19:27:39.219Z,2.50
2024-04-21T19:29:40.942Z,2.47
2024-04-21T19:31:42.859Z,2.22
2024-04-21T19:33:44.684Z,2.50
2024-04-21T19:35:46.454Z,3.00
2024-04-21T19:37:48.234Z,2.75
2024-04-21T19:39:52.698Z,2.70
2024-04-21T19:41:54.730Z,2.65
2024-04-21T19:43:56.543Z,2.17
2024-04-21T19:46:00.384Z,2.40
2024-04-21T19:48:02.377Z,2.80
2024-04-21T19:50:04.766Z,3.40
2024-04-21T19:52:06.699Z,3.20
2024-04-21T19:54:13.238Z,3.00
2024-04-21T19:56:24.780Z,2.92
2024-04-21T19:58:26.585Z,3.35
2024-04-21T20:00:28.394Z,3.38
2024-04-21T20:02:30.241Z,3.67
2024-04-21T20:04:32.914Z,3.55
2024-04-21T20:06:34.774Z,4.15
2024-04-21T20:08:36.596Z,4.13
2024-04-21T20:10:38.423Z,4.15
2024-04-21T20:12:42.816Z,4.93
2024-04-21T20:14:44.627Z,4.22
2024-04-21T20:16:46.637Z,4.10
2024-04-21T20:18:48.423Z,4.28
2024-04-21T20:20:59.874Z,4.82
2024-04-21T20:23:01.680Z,4.53
2024-04-21T20:25:03.632Z,4.65
2024-04-21T20:27:05.655Z,4.47
2024-04-21T20:29:10.151Z,4.47
2024-04-21T20:31:12.061Z,6.55
2024-04-21T20:33:13.965Z,4.35
2024-04-21T20:35:15.996Z,5.60
2024-04-21T20:37:17.933Z,5.65
2024-04-21T20:39:19.805Z,4.45
2024-04-21T20:41:21.717Z,4.82
2024-04-21T20:43:23.591Z,5.15
2024-04-21T20:45:28.009Z,6.00
2024-04-21T20:47:29.962Z,5.05
2024-04-21T20:49:31.939Z,5.30
2024-04-21T20:51:33.832Z,5.22
2024-04-21T20:53:35.596Z,5.00
2024-04-21T20:55:38.137Z,5.30
2024-04-21T20:57:40.135Z,5.65
2024-04-21T20:59:41.935Z,6.00
2024-04-21T21:01:46.366Z,5.18
2024-04-21T21:03:48.287Z,5.70
2024-04-21T21:05:50.122Z,5.38
2024-04-21T21:07:51.866Z,5.57
2024-04-21T21:09:53.727Z,5.85
2024-04-21T21:11:55.539Z,5.65
2024-04-21T21:13:57.343Z,4.93
2024-04-21T21:15:59.195Z,5.28
2024-04-21T21:18:04.187Z,5.95
2024-04-21T21:20:06.992Z,5.97
2024-04-21T21:22:08.914Z,5.82
2024-04-21T21:24:10.726Z,5.25
2024-04-21T21:26:12.557Z,5.47
2024-04-21T21:28:14.489Z,5.28
2024-04-21T21:30:16.500Z,5.40
2024-04-21T21:32:18.360Z,4.80
2024-04-21T21:34:22.920Z,5.13
2024-04-21T21:36:24.822Z,5.43
2024-04-21T21:38:28.141Z,5.40
2024-04-21T21:40:30.099Z,5.25
2024-04-21T21:42:31.936Z,5.07
2024-04-21T21:44:33.710Z,5.85
2024-04-21T21:46:35.735Z,5.55
2024-04-21T21:48:37.658Z,4.88
2024-04-21T21:50:42.855Z,5.40
2024-04-21T21:52:44.725Z,5.63
2024-04-21T21:54:46.471Z,4.72
2024-04-21T21:56:48.321Z,5.43
2024-04-21T21:58:50.095Z,5.07
2024-04-21T22:00:51.936Z,4.95
2024-04-21T22:02:53.779Z,4.30
2024-04-21T22:04:55.574Z,5.65
2024-04-21T22:06:59.976Z,4.47
2024-04-21T22:09:01.859Z,4.60
2024-04-21T22:11:04.247Z,4.82
2024-04-21T22:13:06.321Z,4.35
2024-04-21T22:15:08.442Z,4.55
2024-04-21T22:17:10.206Z,3.75
2024-04-21T22:19:12.092Z,4.40
2024-04-21T22:21:13.916Z,4.25
2024-04-21T22:23:18.355Z,5.25
2024-04-21T22:25:20.523Z,4.10
2024-04-21T22:27:22.488Z,4.40
2024-04-21T22:29:24.360Z,4.78
2024-04-21T22:31:26.204Z,4.57
2024-04-21T22:33:28.100Z,4.32
2024-04-21T22:35:29.998Z,4.47
2024-04-21T22:37:31.806Z,4.15
2024-04-21T22:39:36.375Z,3.40
2024-04-21T22:41:38.156Z,4.30
2024-04-21T22:43:40.075Z,4.20
2024-04-21T22:45:41.852Z,4.00
2024-04-21T22:47:43.709Z,4.32
2024-04-21T22:49:45.587Z,3.80
2024-04-21T22:51:47.373Z,3.13
2024-04-21T22:53:49.138Z,3.40
2024-04-21T22:55:54.803Z,3.00
2024-04-21T22:57:56.591Z,3.30
2024-04-21T22:59:58.462Z,3.70
2024-04-21T23:02:00.398Z,3.08
2024-04-21T23:04:02.308Z,3.58
2024-04-21T23:06:04.961Z,3.05
2024-04-21T23:08:07.853Z,3.65
2024-04-21T23:10:09.808Z,2.90
2024-04-21T23:12:14.272Z,3.40
2024-04-21T23:14:16.069Z,2.88
2024-04-21T23:16:17.893Z,3.53
2024-04-21T23:18:19.800Z,2.95
2024-04-21T23:20:22.809Z,2.88
2024-04-21T23:22:24.665Z,2.95
2024-04-21T23:24:26.452Z,3.10
2024-04-21T23:26:28.226Z,3.05
2024-04-21T23:28:32.705Z,3.20
2024-04-21T23:30:34.548Z,3.22
2024-04-21T23:32:36.662Z,3.22
2024-04-21T23:34:38.978Z,3.15
2024-04-21T23:36:40.830Z,3.13
2024-04-21T23:38:42.725Z,3.53
2024-04-21T23:40:44.529Z,3.55
2024-04-21T23:42:46.317Z,2.95
2024-04-21T23:44:51.116Z,2.95
2024-04-21T23:46:52.946Z,3.28
2024-04-21T23:48:54.803Z,3.75
2024-04-21T23:50:56.791Z,3.20
2024-04-21T23:52:58.573Z,3.20
2024-04-21T23:55:00.430Z,3.28
2024-04-21T23:57:02.233Z,3.50
2024-04-21T23:59:04.078Z,3.28
